createdAt,value
2018-09-27T00:02:20.780Z,7.70
2018-09-27T00:04:49.015Z,7.70
2018-09-27T00:07:17.307Z,7.70
2018-09-27T00:09:45.613Z,7.70
2018-09-27T00:12:13.925Z,7.70
2018-09-27T00:14:42.202Z,7.60
2018-09-27T00:17:10.550Z,7.60
2018-09-27T00:19:38.917Z,7.60
2018-09-27T00:22:07.171Z,7.60
2018-09-27T00:24:35.416Z,7.50
2018-09-27T00:27:03.662Z,7.60
2018-09-27T00:29:31.945Z,7.50
2018-09-27T00:32:00.570Z,7.50
2018-09-27T00:34:28.893Z,7.50
2018-09-27T00:36:57.177Z,7.50
2018-09-27T00:39:25.554Z,7.50
2018-09-27T00:41:53.800Z,7.50
2018-09-27T00:44:22.090Z,7.50
2018-09-27T00:46:50.409Z,7.50
2018-09-27T00:49:20.159Z,7.40
2018-09-27T00:51:48.826Z,7.40
2018-09-27T00:54:17.211Z,7.50
2018-09-27T00:56:45.639Z,7.40
2018-09-27T00:59:13.920Z,7.50
2018-09-27T01:01:42.249Z,7.50
2018-09-27T01:04:10.628Z,7.40
2018-09-27T01:06:38.933Z,7.40
2018-09-27T01:09:10.157Z,7.40
2018-09-27T01:11:38.705Z,7.40
2018-09-27T01:14:09.900Z,7.30
2018-09-27T01:16:38.178Z,7.30
2018-09-27T01:19:06.482Z,7.20
2018-09-27T01:21:34.807Z,7.20
2018-09-27T01:24:03.161Z,7.20
2018-09-27T01:26:31.508Z,7.20
2018-09-27T01:28:59.848Z,7.20
2018-09-27T01:31:28.169Z,7.20
2018-09-27T01:33:56.449Z,7.20
2018-09-27T01:36:24.931Z,7.10
2018-09-27T01:38:53.265Z,7.10
2018-09-27T01:41:21.537Z,7.10
2018-09-27T01:43:49.862Z,7.10
2018-09-27T01:46:18.174Z,7.00
2018-09-27T01:48:46.452Z,7.00
2018-09-27T01:51:16.268Z,7.00
2018-09-27T01:53:45.635Z,7.00
2018-09-27T01:56:14.014Z,7.00
2018-09-27T01:58:42.316Z,7.00
2018-09-27T02:01:10.632Z,6.90
2018-09-27T02:03:38.907Z,6.90
2018-09-27T02:06:07.381Z,6.90
2018-09-27T02:08:35.685Z,6.90
2018-09-27T02:11:04.023Z,6.90
2018-09-27T02:13:32.323Z,6.90
2018-09-27T02:16:00.700Z,6.80
2018-09-27T02:18:28.862Z,6.80
2018-09-27T02:20:57.089Z,6.80
2018-09-27T02:23:25.535Z,6.80
2018-09-27T02:25:53.804Z,6.80
2018-09-27T02:28:22.159Z,6.80
2018-09-27T02:30:50.441Z,6.70
2018-09-27T02:33:18.716Z,6.70
2018-09-27T02:35:47.006Z,6.70
2018-09-27T02:38:15.289Z,6.70
2018-09-27T02:40:43.631Z,6.70
2018-09-27T02:43:11.847Z,6.70
2018-09-27T02:45:40.031Z,6.70
2018-09-27T02:48:08.289Z,6.70
2018-09-27T02:50:36.555Z,6.70
2018-09-27T02:53:05.984Z,6.60
2018-09-27T02:55:34.157Z,6.60
2018-09-27T02:58:02.388Z,6.60
2018-09-27T03:00:30.577Z,6.70
2018-09-27T03:02:58.924Z,6.60
2018-09-27T03:05:27.234Z,6.70
2018-09-27T03:07:55.584Z,6.70
2018-09-27T03:10:23.909Z,6.70
2018-09-27T03:12:52.267Z,6.70
2018-09-27T03:15:20.579Z,6.70
2018-09-27T03:17:48.877Z,6.70
2018-09-27T03:20:17.237Z,6.60
2018-09-27T03:22:45.662Z,6.70
2018-09-27T03:25:13.837Z,6.60
2018-09-27T03:27:42.082Z,6.60
2018-09-27T03:30:15.347Z,6.50
2018-09-27T03:32:43.654Z,6.50
2018-09-27T03:35:11.891Z,6.50
2018-09-27T03:37:40.092Z,6.50
2018-09-27T03:40:08.435Z,6.50
2018-09-27T03:42:36.729Z,6.50
2018-09-27T03:45:05.109Z,6.50
2018-09-27T03:47:33.401Z,6.50
2018-09-27T03:50:01.733Z,6.50
2018-09-27T03:52:30.057Z,6.50
2018-09-27T03:54:58.488Z,6.50
2018-09-27T03:57:29.796Z,6.50
2018-09-27T03:59:58.111Z,6.50
2018-09-27T04:02:26.379Z,6.40
2018-09-27T04:04:54.657Z,6.40
2018-09-27T04:07:23.048Z,6.40
2018-09-27T04:09:51.311Z,6.40
2018-09-27T04:12:19.546Z,6.40
2018-09-27T04:14:47.884Z,6.40
2018-09-27T04:17:16.178Z,6.40
2018-09-27T04:19:44.527Z,6.40
2018-09-27T04:22:12.738Z,6.40
2018-09-27T04:24:40.978Z,6.40
2018-09-27T04:27:09.310Z,6.40
2018-09-27T04:29:37.682Z,6.40
2018-09-27T04:32:10.862Z,6.40
2018-09-27T04:34:40.814Z,6.40
2018-09-27T04:37:09.359Z,6.40
2018-09-27T04:39:37.669Z,6.40
2018-09-27T04:42:06.151Z,6.40
2018-09-27T04:44:34.412Z,6.40
2018-09-27T04:47:02.621Z,6.40
2018-09-27T04:49:31.447Z,6.40
2018-09-27T04:51:59.661Z,6.30
2018-09-27T04:54:27.870Z,6.30
2018-09-27T04:56:56.252Z,6.30
2018-09-27T04:59:24.552Z,6.20
2018-09-27T05:01:52.762Z,6.30
2018-09-27T05:04:21.088Z,6.30
2018-09-27T05:06:49.363Z,6.30
2018-09-27T05:09:17.547Z,6.30
2018-09-27T05:11:46.178Z,6.20
2018-09-27T05:14:14.407Z,6.20
2018-09-27T05:16:42.924Z,6.20
2018-09-27T05:19:11.724Z,6.20
2018-09-27T05:21:50.021Z,6.20
2018-09-27T05:24:18.572Z,6.20
2018-09-27T05:26:47.121Z,6.20
2018-09-27T05:29:15.710Z,6.20
2018-09-27T05:31:44.328Z,6.20
2018-09-27T05:34:13.142Z,6.20
2018-09-27T05:36:41.768Z,6.30
2018-09-27T05:39:11.013Z,6.20
2018-09-27T05:41:39.557Z,6.20
2018-09-27T05:44:08.700Z,6.30
2018-09-27T05:46:37.106Z,6.30
2018-09-27T05:49:05.687Z,6.30
2018-09-27T05:51:34.164Z,6.40
2018-09-27T05:54:02.536Z,6.40
2018-09-27T05:56:30.944Z,6.40
2018-09-27T05:58:59.219Z,6.50
2018-09-27T06:01:31.153Z,6.50
2018-09-27T06:03:59.562Z,6.50
2018-09-27T06:06:27.941Z,6.50
2018-09-27T06:08:56.262Z,6.50
2018-09-27T06:11:24.626Z,6.60
2018-09-27T06:13:52.965Z,6.60
2018-09-27T06:16:21.318Z,6.60
2018-09-27T06:18:49.685Z,6.70
2018-09-27T06:21:23.132Z,6.70
2018-09-27T06:23:51.663Z,6.70
2018-09-27T06:26:20.274Z,6.70
2018-09-27T06:28:48.561Z,6.80
2018-09-27T06:31:16.854Z,6.90
2018-09-27T06:33:45.438Z,6.90
2018-09-27T06:36:13.777Z,7.00
2018-09-27T06:38:42.452Z,7.10
2018-09-27T06:41:10.724Z,7.10
2018-09-27T06:43:38.970Z,7.20
2018-09-27T06:46:07.712Z,7.20
2018-09-27T06:48:36.142Z,7.30
2018-09-27T06:51:05.781Z,7.40
2018-09-27T06:53:34.206Z,7.40
2018-09-27T06:56:02.821Z,7.50
2018-09-27T06:58:31.057Z,7.60
2018-09-27T07:01:09.406Z,7.70
2018-09-27T07:03:37.825Z,7.80
2018-09-27T07:06:06.427Z,7.90
2018-09-27T07:08:34.901Z,8.00
2018-09-27T07:11:03.248Z,8.10
2018-09-27T07:13:32.729Z,8.10
2018-09-27T07:16:01.247Z,8.20
2018-09-27T07:18:29.775Z,8.30
2018-09-27T07:20:58.480Z,8.40
2018-09-27T07:23:26.814Z,8.50
2018-09-27T07:25:55.088Z,8.60
2018-09-27T07:28:23.367Z,8.80
2018-09-27T07:30:51.638Z,8.90
2018-09-27T07:33:19.890Z,9.00
2018-09-27T07:35:48.324Z,9.10
2018-09-27T07:38:16.546Z,9.20
2018-09-27T07:40:45.005Z,9.30
2018-09-27T07:43:18.428Z,9.40
2018-09-27T07:45:46.749Z,9.50
2018-09-27T07:48:15.068Z,9.60
2018-09-27T07:50:43.497Z,9.70
2018-09-27T07:53:11.821Z,9.80
2018-09-27T07:55:40.137Z,9.90
2018-09-27T07:58:08.961Z,10.00
2018-09-27T08:00:37.470Z,10.10
2018-09-27T08:03:06.090Z,10.20
2018-09-27T08:05:34.787Z,10.30
2018-09-27T08:08:04.154Z,10.40
2018-09-27T08:10:32.564Z,10.50
2018-09-27T08:13:00.819Z,10.60
2018-09-27T08:15:29.146Z,10.70
2018-09-27T08:17:57.461Z,10.80
2018-09-27T08:20:25.844Z,10.80
2018-09-27T08:22:57.239Z,11.00
2018-09-27T08:25:25.558Z,11.00
2018-09-27T08:27:53.834Z,11.10
2018-09-27T08:30:24.747Z,11.20
2018-09-27T08:32:52.934Z,11.40
2018-09-27T08:35:21.235Z,11.50
2018-09-27T08:37:49.589Z,11.60
2018-09-27T08:40:17.918Z,11.70
2018-09-27T08:42:46.166Z,11.90
2018-09-27T08:45:14.803Z,12.00
2018-09-27T08:47:43.113Z,12.20
2018-09-27T08:50:11.731Z,12.30
2018-09-27T08:52:40.061Z,12.40
2018-09-27T08:55:08.401Z,12.50
2018-09-27T08:57:36.674Z,12.60
2018-09-27T09:00:05.470Z,12.70
2018-09-27T09:02:33.703Z,12.80
2018-09-27T09:05:01.975Z,12.90
2018-09-27T09:07:31.318Z,12.90
2018-09-27T09:09:59.481Z,13.00
2018-09-27T09:12:27.815Z,13.10
2018-09-27T09:14:56.076Z,13.20
2018-09-27T09:17:24.313Z,13.30
2018-09-27T09:19:52.627Z,13.50
2018-09-27T09:22:20.925Z,13.60
2018-09-27T09:24:51.218Z,13.70
2018-09-27T09:27:19.681Z,13.80
2018-09-27T09:29:48.390Z,13.90
2018-09-27T09:32:16.791Z,14.00
2018-09-27T09:34:45.259Z,14.10
2018-09-27T09:37:13.682Z,14.20
2018-09-27T09:39:42.265Z,14.30
2018-09-27T09:42:10.814Z,14.40
2018-09-27T09:44:40.324Z,14.60
2018-09-27T09:47:08.758Z,14.70
2018-09-27T09:55:20.123Z,15.10
2018-09-27T10:00:45.206Z,15.30
2018-09-27T10:03:13.750Z,15.40
2018-09-27T10:05:43.107Z,15.60
2018-09-27T10:08:12.298Z,15.60
2018-09-27T10:10:41.617Z,15.70
2018-09-27T10:13:10.283Z,15.80
2018-09-27T10:15:38.971Z,16.00
2018-09-27T10:18:07.968Z,16.20
2018-09-27T10:23:29.076Z,16.40
2018-09-27T10:25:57.544Z,16.50
2018-09-27T10:28:25.952Z,16.70
2018-09-27T10:30:54.792Z,16.80
2018-09-27T10:33:23.034Z,17.00
2018-09-27T10:35:51.423Z,17.10
2018-09-27T10:43:05.171Z,17.30
2018-09-27T10:45:33.521Z,17.50
2018-09-27T10:48:01.846Z,17.70
2018-09-27T10:50:33.906Z,17.80
2018-09-27T10:53:05.302Z,17.90
2018-09-27T10:55:33.564Z,18.00
2018-09-27T10:58:05.729Z,18.10
2018-09-27T11:00:34.008Z,18.30
2018-09-27T11:03:02.280Z,18.40
2018-09-27T11:05:30.724Z,18.50
2018-09-27T11:07:59.089Z,18.60
2018-09-27T11:10:27.530Z,18.80
2018-09-27T11:12:55.891Z,18.90
2018-09-27T11:15:24.284Z,19.00
2018-09-27T11:17:52.515Z,19.20
2018-09-27T11:20:20.852Z,19.30
2018-09-27T11:22:52.339Z,19.40
2018-09-27T11:25:22.066Z,19.50
2018-09-27T11:27:50.554Z,19.50
2018-09-27T11:30:24.224Z,19.70
2018-09-27T11:32:52.412Z,19.70
2018-09-27T11:35:20.912Z,19.80
2018-09-27T11:37:55.183Z,19.90
2018-09-27T11:40:23.419Z,20.00
2018-09-27T11:43:04.891Z,20.10
2018-09-27T11:45:33.299Z,20.20
2018-09-27T11:48:02.746Z,20.20
2018-09-27T11:50:31.282Z,20.30
2018-09-27T11:52:59.769Z,20.40
2018-09-27T11:55:28.105Z,20.50
2018-09-27T11:57:56.476Z,20.50
2018-09-27T12:00:24.865Z,20.60
2018-09-27T12:02:53.242Z,20.70
2018-09-27T12:05:21.589Z,20.80
2018-09-27T12:07:54.841Z,20.80
2018-09-27T12:10:23.296Z,20.90
2018-09-27T12:12:52.020Z,20.90
2018-09-27T12:15:20.469Z,20.90
2018-09-27T12:17:48.824Z,21.00
2018-09-27T12:20:17.213Z,21.10
2018-09-27T12:22:45.581Z,21.10
2018-09-27T12:25:13.987Z,21.20
2018-09-27T12:27:42.483Z,21.20
2018-09-27T12:30:10.838Z,21.20
2018-09-27T12:32:39.283Z,21.30
2018-09-27T12:35:07.640Z,21.30
2018-09-27T12:37:36.384Z,21.30
2018-09-27T12:40:04.780Z,21.40
2018-09-27T12:42:33.178Z,21.40
2018-09-27T12:45:07.691Z,21.50
2018-09-27T12:47:35.937Z,21.50
2018-09-27T12:50:04.302Z,21.60
2018-09-27T12:52:32.844Z,21.60
2018-09-27T12:55:01.099Z,21.60
2018-09-27T12:57:29.461Z,21.70
2018-09-27T12:59:57.879Z,21.70
2018-09-27T13:02:26.202Z,21.70
2018-09-27T13:04:54.547Z,21.80
2018-09-27T13:07:22.903Z,21.80
2018-09-27T13:09:51.372Z,21.80
2018-09-27T13:12:19.675Z,21.90
2018-09-27T13:14:48.368Z,22.00
2018-09-27T13:17:16.665Z,22.00
2018-09-27T13:19:45.178Z,22.00
2018-09-27T13:22:13.521Z,22.10
2018-09-27T13:24:41.939Z,22.10
2018-09-27T13:27:11.344Z,22.20
2018-09-27T13:29:39.582Z,22.20
2018-09-27T13:32:08.463Z,22.20
2018-09-27T13:34:36.618Z,22.20
2018-09-27T13:37:05.342Z,22.30
2018-09-27T13:39:33.620Z,22.30
2018-09-27T13:42:01.976Z,22.30
2018-09-27T13:44:30.240Z,22.30
2018-09-27T13:46:58.575Z,22.30
2018-09-27T13:49:26.942Z,22.30
2018-09-27T13:51:56.605Z,22.30
2018-09-27T13:54:25.157Z,22.40
2018-09-27T13:56:53.559Z,22.40
2018-09-27T13:59:23.122Z,22.40
2018-09-27T14:01:51.562Z,22.30
2018-09-27T14:04:19.958Z,22.30
2018-09-27T14:06:50.178Z,22.40
2018-09-27T14:09:18.595Z,22.40
2018-09-27T14:11:47.351Z,22.40
2018-09-27T14:14:15.835Z,22.40
2018-09-27T14:16:44.540Z,22.40
2018-09-27T14:19:19.356Z,22.40
2018-09-27T14:21:48.078Z,22.40
2018-09-27T14:24:16.623Z,22.40
2018-09-27T14:26:45.137Z,22.40
2018-09-27T14:29:13.799Z,22.40
2018-09-27T14:31:42.418Z,22.40
2018-09-27T14:34:11.039Z,22.40
2018-09-27T14:36:39.722Z,22.40
2018-09-27T14:39:09.474Z,22.30
2018-09-27T14:41:38.010Z,22.30
2018-09-27T14:44:06.711Z,22.30
2018-09-27T14:46:35.097Z,22.20
2018-09-27T14:49:03.770Z,22.20
2018-09-27T14:51:32.566Z,22.20
2018-09-27T14:54:00.920Z,22.10
2018-09-27T14:56:29.498Z,22.00
2018-09-27T14:58:57.843Z,21.90
2018-09-27T15:01:26.257Z,21.90
2018-09-27T15:03:54.669Z,21.70
2018-09-27T15:06:23.174Z,21.60
2018-09-27T15:08:52.065Z,21.40
2018-09-27T15:11:20.657Z,21.30
2018-09-27T15:13:48.934Z,21.30
2018-09-27T15:16:17.253Z,21.10
2018-09-27T15:18:47.644Z,21.10
2018-09-27T15:21:16.058Z,21.00
2018-09-27T15:23:44.846Z,20.90
2018-09-27T15:29:08.338Z,20.80
2018-09-27T15:31:37.479Z,20.70
2018-09-27T15:34:05.869Z,20.60
2018-09-27T15:42:26.859Z,20.40
2018-09-27T15:53:46.168Z,20.00
2018-09-27T15:56:14.694Z,20.00
2018-09-27T15:58:43.303Z,19.90
2018-09-27T16:01:11.836Z,19.80
2018-09-27T16:03:40.509Z,19.70
2018-09-27T16:06:08.989Z,19.70
2018-09-27T16:08:37.431Z,19.60
2018-09-27T16:11:06.013Z,19.50
2018-09-27T16:13:34.550Z,19.40
2018-09-27T16:16:03.101Z,19.40
2018-09-27T16:18:31.458Z,19.30
2018-09-27T16:20:59.790Z,19.20
2018-09-27T16:23:28.255Z,19.20
2018-09-27T16:25:56.860Z,19.10
2018-09-27T16:28:34.013Z,19.00
2018-09-27T16:31:02.677Z,19.00
2018-09-27T16:33:31.326Z,18.90
2018-09-27T16:36:00.019Z,18.80
2018-09-27T16:38:28.821Z,18.70
2018-09-27T16:40:57.576Z,18.60
2018-09-27T16:43:26.389Z,18.60
2018-09-27T16:45:54.989Z,18.50
2018-09-27T16:51:14.500Z,18.40
2018-09-27T16:53:43.239Z,18.30
2018-09-27T16:56:11.918Z,18.20
2018-09-27T17:01:31.066Z,18.00
2018-09-27T17:03:59.913Z,17.90
2018-09-27T17:06:28.539Z,17.90
2018-09-27T17:08:57.272Z,17.80
2018-09-27T17:11:25.942Z,17.80
2018-09-27T17:14:01.944Z,17.70
2018-09-27T17:16:30.425Z,17.60
2018-09-27T17:18:58.931Z,17.50
2018-09-27T17:21:27.477Z,17.40
2018-09-27T17:23:56.047Z,17.40
2018-09-27T17:26:24.720Z,17.30
2018-09-27T17:28:55.115Z,17.20
2018-09-27T17:31:24.474Z,17.20
2018-09-27T17:33:52.937Z,17.10
2018-09-27T17:36:21.377Z,17.00
2018-09-27T17:38:50.119Z,16.90
2018-09-27T17:41:18.542Z,16.90
2018-09-27T17:43:46.975Z,16.80
2018-09-27T17:46:15.328Z,16.60
2018-09-27T17:54:28.622Z,16.40
2018-09-27T17:56:56.934Z,16.30
2018-09-27T17:59:25.424Z,16.30
2018-09-27T18:01:53.745Z,16.20
2018-09-27T18:04:22.049Z,16.10
2018-09-27T18:06:50.453Z,16.00
2018-09-27T18:09:18.882Z,15.90
2018-09-27T18:11:48.530Z,15.90
2018-09-27T18:14:16.995Z,15.80
2018-09-27T18:16:45.395Z,15.70
2018-09-27T18:19:13.805Z,15.70
2018-09-27T18:21:42.341Z,15.60
2018-09-27T18:24:10.789Z,15.50
2018-09-27T18:26:39.452Z,15.50
2018-09-27T18:29:08.058Z,15.40
2018-09-27T18:31:36.628Z,15.30
2018-09-27T18:34:05.092Z,15.20
2018-09-27T18:36:33.506Z,15.10
2018-09-27T18:39:02.006Z,15.10
2018-09-27T18:41:30.533Z,15.00
2018-09-27T18:44:01.463Z,14.90
2018-09-27T18:46:30.038Z,14.80
2018-09-27T18:48:58.523Z,14.80
2018-09-27T18:51:27.387Z,14.70
2018-09-27T18:53:55.882Z,14.60
2018-09-27T18:56:35.822Z,14.60
2018-09-27T18:59:04.221Z,14.50
2018-09-27T19:01:32.713Z,14.50
2018-09-27T19:04:01.131Z,14.50
2018-09-27T19:06:29.564Z,14.40
2018-09-27T19:08:57.938Z,14.30
2018-09-27T19:11:26.286Z,14.20
2018-09-27T19:13:54.816Z,14.20
2018-09-27T19:16:23.302Z,14.10
2018-09-27T19:18:51.881Z,14.00
2018-09-27T19:21:20.639Z,14.00
2018-09-27T19:23:49.205Z,13.90
2018-09-27T19:26:17.499Z,13.80
2018-09-27T19:28:45.847Z,13.80
2018-09-27T19:31:14.212Z,13.70
2018-09-27T19:33:42.603Z,13.60
2018-09-27T19:36:12.005Z,13.60
2018-09-27T19:38:40.340Z,13.50
2018-09-27T19:41:08.868Z,13.50
2018-09-27T19:43:39.826Z,13.40
2018-09-27T19:46:08.189Z,13.40
2018-09-27T19:48:36.696Z,13.30
2018-09-27T19:51:05.315Z,13.30
2018-09-27T19:53:35.300Z,13.20
2018-09-27T19:56:03.908Z,13.20
2018-09-27T19:58:32.488Z,13.10
2018-09-27T20:01:01.036Z,13.10
2018-09-27T20:03:30.089Z,13.10
2018-09-27T20:05:58.654Z,13.00
2018-09-27T20:11:32.853Z,12.90
2018-09-27T20:14:01.409Z,12.80
2018-09-27T20:16:29.884Z,12.70
2018-09-27T20:18:58.262Z,12.70
2018-09-27T20:21:33.129Z,12.60
2018-09-27T20:24:01.687Z,12.60
2018-09-27T20:26:30.209Z,12.50
2018-09-27T20:28:58.744Z,12.50
2018-09-27T20:31:28.396Z,12.40
2018-09-27T20:33:56.728Z,12.40
2018-09-27T20:36:25.146Z,12.30
2018-09-27T20:38:54.807Z,12.30
2018-09-27T20:41:23.090Z,12.30
2018-09-27T20:44:06.967Z,12.20
2018-09-27T20:46:35.492Z,12.20
2018-09-27T20:49:05.775Z,12.10
2018-09-27T20:51:35.278Z,12.10
2018-09-27T20:54:12.401Z,12.10
2018-09-27T20:56:45.547Z,12.00
2018-09-27T20:59:13.881Z,12.00
2018-09-27T21:01:45.497Z,12.00
2018-09-27T21:04:13.808Z,11.90
2018-09-27T21:06:42.142Z,11.90
2018-09-27T21:09:12.154Z,11.80
2018-09-27T21:11:40.854Z,11.80
2018-09-27T21:14:13.246Z,11.80
2018-09-27T21:16:41.705Z,11.80
2018-09-27T21:19:10.082Z,11.70
2018-09-27T21:21:38.405Z,11.70
2018-09-27T21:24:06.809Z,11.60
2018-09-27T21:26:35.236Z,11.60
2018-09-27T21:29:03.486Z,11.60
2018-09-27T21:31:31.953Z,11.50
2018-09-27T21:34:00.265Z,11.50
2018-09-27T21:36:28.649Z,11.50
2018-09-27T21:38:56.886Z,11.50
2018-09-27T21:41:25.732Z,11.40
2018-09-27T21:43:54.390Z,11.40
2018-09-27T21:46:22.946Z,11.30
2018-09-27T21:48:51.375Z,11.30
2018-09-27T21:51:19.649Z,11.20
2018-09-27T21:53:48.187Z,11.20
2018-09-27T21:56:25.340Z,11.10
2018-09-27T21:58:59.988Z,11.10
2018-09-27T22:01:28.265Z,11.00
2018-09-27T22:03:56.618Z,11.00
2018-09-27T22:06:24.909Z,10.90
2018-09-27T22:08:53.902Z,10.90
2018-09-27T22:11:37.746Z,10.90
2018-09-27T22:14:06.302Z,10.90
2018-09-27T22:16:34.603Z,10.80
2018-09-27T22:19:02.948Z,10.80
2018-09-27T22:21:31.310Z,10.70
2018-09-27T22:24:09.325Z,10.70
2018-09-27T22:26:37.593Z,10.60
2018-09-27T22:29:05.919Z,10.60
2018-09-27T22:31:34.148Z,10.50
2018-09-27T22:34:02.378Z,10.50
2018-09-27T22:36:30.778Z,10.50
2018-09-27T22:38:59.038Z,10.50
2018-09-27T22:41:27.358Z,10.40
2018-09-27T22:43:55.705Z,10.40
2018-09-27T22:46:24.104Z,10.30
2018-09-27T22:48:53.468Z,10.30
2018-09-27T22:51:21.894Z,10.20
2018-09-27T22:53:50.529Z,10.20
2018-09-27T22:56:18.787Z,10.20
2018-09-27T22:58:47.095Z,10.10
2018-09-27T23:01:15.382Z,10.10
2018-09-27T23:03:43.645Z,10.00
2018-09-27T23:06:11.914Z,10.00
2018-09-27T23:08:40.351Z,10.00
2018-09-27T23:11:08.585Z,9.90
2018-09-27T23:13:36.786Z,9.90
2018-09-27T23:16:05.093Z,9.80
2018-09-27T23:18:33.377Z,9.80
2018-09-27T23:21:01.603Z,9.80
2018-09-27T23:23:29.922Z,9.70
2018-09-27T23:25:58.272Z,9.70
2018-09-27T23:28:26.556Z,9.60
2018-09-27T23:30:54.816Z,9.60
2018-09-27T23:33:23.098Z,9.50
2018-09-27T23:35:51.299Z,9.50
2018-09-27T23:38:25.741Z,9.50
2018-09-27T23:40:53.987Z,9.40
2018-09-27T23:43:22.234Z,9.40
2018-09-27T23:45:50.553Z,9.30
2018-09-27T23:48:18.846Z,9.30
2018-09-27T23:50:47.052Z,9.30
2018-09-27T23:53:15.345Z,9.30
2018-09-27T23:55:43.781Z,9.20
2018-09-27T23:58:12.100Z,9.20
